sensor_id;sensor_type;location;lat;lon;timestamp;pressure;altitude;pressure_sealevel;temperature;humidity
4590;BME280;2307;48.448;9.216;2022-08-21T00:02:19;95630.50;;;17.87;98.78
4590;BME280;2307;48.448;9.216;2022-08-21T00:04:46;95630.78;;;17.81;97.36
4590;BME280;2307;48.448;9.216;2022-08-21T00:07:13;95622.47;;;17.82;93.84
4590;BME280;2307;48.448;9.216;2022-08-21T00:09:39;95622.47;;;17.87;93.05
4590;BME280;2307;48.448;9.216;2022-08-21T00:12:06;95610.72;;;17.88;94.15
4590;BME280;2307;48.448;9.216;2022-08-21T00:14:33;95613.31;;;17.98;89.92
4590;BME280;2307;48.448;9.216;2022-08-21T00:17:01;95613.94;;;17.80;92.18
4590;BME280;2307;48.448;9.216;2022-08-21T00:19:27;95610.47;;;17.85;91.80
4590;BME280;2307;48.448;9.216;2022-08-21T00:21:54;95604.38;;;17.74;94.09
4590;BME280;2307;48.448;9.216;2022-08-21T00:24:20;95602.47;;;17.80;91.74
4590;BME280;2307;48.448;9.216;2022-08-21T00:26:48;95604.31;;;17.84;93.10
4590;BME280;2307;48.448;9.216;2022-08-21T00:29:14;95600.31;;;17.87;94.20
4590;BME280;2307;48.448;9.216;2022-08-21T00:31:41;95613.38;;;17.93;92.62
4590;BME280;2307;48.448;9.216;2022-08-21T00:34:09;95610.13;;;17.96;95.11
4590;BME280;2307;48.448;9.216;2022-08-21T00:36:36;95605.19;;;17.75;97.05
4590;BME280;2307;48.448;9.216;2022-08-21T00:39:03;95609.75;;;17.64;99.13
4590;BME280;2307;48.448;9.216;2022-08-21T00:41:30;95602.78;;;17.68;97.18
4590;BME280;2307;48.448;9.216;2022-08-21T00:43:57;95608.66;;;17.70;96.93
4590;BME280;2307;48.448;9.216;2022-08-21T00:46:23;95608.09;;;17.73;100.00
4590;BME280;2307;48.448;9.216;2022-08-21T00:48:50;95607.56;;;17.76;97.64
4590;BME280;2307;48.448;9.216;2022-08-21T00:51:19;95600.72;;;17.55;96.52
4590;BME280;2307;48.448;9.216;2022-08-21T00:53:49;95600.72;;;17.50;96.85
4590;BME280;2307;48.448;9.216;2022-08-21T00:56:16;95601.25;;;17.47;96.57
4590;BME280;2307;48.448;9.216;2022-08-21T00:58:43;95597.78;;;17.46;97.53
4590;BME280;2307;48.448;9.216;2022-08-21T01:01:09;95593.47;;;17.50;94.86
4590;BME280;2307;48.448;9.216;2022-08-21T01:03:36;95594.28;;;17.51;94.56
4590;BME280;2307;48.448;9.216;2022-08-21T01:06:03;95595.38;;;17.55;94.06
4590;BME280;2307;48.448;9.216;2022-08-21T01:08:31;95591.59;;;17.51;94.62
4590;BME280;2307;48.448;9.216;2022-08-21T01:10:58;95591.88;;;17.60;94.49
4590;BME280;2307;48.448;9.216;2022-08-21T01:13:25;95582.53;;;17.52;96.14
4590;BME280;2307;48.448;9.216;2022-08-21T01:15:53;95595.63;;;17.53;96.16
4590;BME280;2307;48.448;9.216;2022-08-21T01:18:20;95582.00;;;17.50;96.24
4590;BME280;2307;48.448;9.216;2022-08-21T01:21:00;95584.41;;;17.51;94.72
4590;BME280;2307;48.448;9.216;2022-08-21T01:23:26;95592.13;;;17.63;96.41
4590;BME280;2307;48.448;9.216;2022-08-21T01:25:53;95585.19;;;17.52;94.25
4590;BME280;2307;48.448;9.216;2022-08-21T01:28:19;95584.13;;;17.53;96.03
4590;BME280;2307;48.448;9.216;2022-08-21T01:30:47;95579.84;;;17.52;98.23
4590;BME280;2307;48.448;9.216;2022-08-21T01:33:14;95578.00;;;17.47;98.29
4590;BME280;2307;48.448;9.216;2022-08-21T01:35:41;95584.13;;;17.48;100.00
4590;BME280;2307;48.448;9.216;2022-08-21T01:38:08;95583.63;;;17.41;100.00
4590;BME280;2307;48.448;9.216;2022-08-21T01:40:35;95579.44;;;17.25;100.00
4590;BME280;2307;48.448;9.216;2022-08-21T01:43:01;95576.50;;;17.21;100.00
4590;BME280;2307;48.448;9.216;2022-08-21T01:45:28;95578.88;;;17.28;100.00
4590;BME280;2307;48.448;9.216;2022-08-21T01:47:54;95577.81;;;17.34;100.00
4590;BME280;2307;48.448;9.216;2022-08-21T01:50:21;95570.59;;;17.29;100.00
4590;BME280;2307;48.448;9.216;2022-08-21T01:52:48;95574.59;;;17.32;100.00
4590;BME280;2307;48.448;9.216;2022-08-21T01:55:16;95574.59;;;17.27;100.00
4590;BME280;2307;48.448;9.216;2022-08-21T01:57:43;95567.66;;;17.26;100.00
4590;BME280;2307;48.448;9.216;2022-08-21T02:00:10;95570.41;;;17.06;100.00
4590;BME280;2307;48.448;9.216;2022-08-21T02:02:37;95564.53;;;16.98;100.00
4590;BME280;2307;48.448;9.216;2022-08-21T02:05:04;95570.94;;;16.97;100.00
4590;BME280;2307;48.448;9.216;2022-08-21T02:07:35;95563.78;;;16.73;100.00
4590;BME280;2307;48.448;9.216;2022-08-21T02:10:01;95558.72;;;16.56;100.00
4590;BME280;2307;48.448;9.216;2022-08-21T02:12:29;95550.19;;;16.59;100.00
4590;BME280;2307;48.448;9.216;2022-08-21T02:14:55;95550.19;;;16.39;100.00
4590;BME280;2307;48.448;9.216;2022-08-21T02:17:21;95549.63;;;16.27;100.00
4590;BME280;2307;48.448;9.216;2022-08-21T02:19:48;95558.97;;;16.29;100.00
4590;BME280;2307;48.448;9.216;2022-08-21T02:22:14;95555.50;;;16.19;100.00
4590;BME280;2307;48.448;9.216;2022-08-21T02:24:41;95556.56;;;16.08;100.00
4590;BME280;2307;48.448;9.216;2022-08-21T02:27:07;95551.22;;;16.13;100.00
4590;BME280;2307;48.448;9.216;2022-08-21T02:29:35;95553.91;;;16.13;100.00
4590;BME280;2307;48.448;9.216;2022-08-21T02:32:01;95542.72;;;16.11;100.00
4590;BME280;2307;48.448;9.216;2022-08-21T02:34:28;95547.22;;;16.15;100.00
4590;BME280;2307;48.448;9.216;2022-08-21T02:36:54;95535.22;;;15.92;100.00
4590;BME280;2307;48.448;9.216;2022-08-21T02:39:21;95536.28;;;15.86;100.00
4590;BME280;2307;48.448;9.216;2022-08-21T02:41:47;95544.81;;;15.88;100.00
4590;BME280;2307;48.448;9.216;2022-08-21T02:44:13;95547.97;;;15.80;100.00
4590;BME280;2307;48.448;9.216;2022-08-21T02:46:41;95540.78;;;15.86;100.00
4590;BME280;2307;48.448;9.216;2022-08-21T02:49:07;95537.88;;;15.92;100.00
4590;BME280;2307;48.448;9.216;2022-08-21T02:51:34;95535.22;;;16.03;100.00
4590;BME280;2307;48.448;9.216;2022-08-21T02:54:00;95539.22;;;15.95;100.00
4590;BME280;2307;48.448;9.216;2022-08-21T02:56:27;95538.69;;;15.93;100.00
4590;BME280;2307;48.448;9.216;2022-08-21T02:58:54;95537.34;;;15.95;100.00
4590;BME280;2307;48.448;9.216;2022-08-21T03:01:20;95537.09;;;15.97;100.00
4590;BME280;2307;48.448;9.216;2022-08-21T03:03:48;95540.28;;;16.14;100.00
4590;BME280;2307;48.448;9.216;2022-08-21T03:06:16;95540.53;;;15.92;100.00
4590;BME280;2307;48.448;9.216;2022-08-21T03:08:43;95538.94;;;15.86;100.00
4590;BME280;2307;48.448;9.216;2022-08-21T03:11:11;95544.78;;;15.78;100.00
4590;BME280;2307;48.448;9.216;2022-08-21T03:13:37;95537.34;;;15.90;100.00
4590;BME280;2307;48.448;9.216;2022-08-21T03:16:04;95543.75;;;15.84;100.00
4590;BME280;2307;48.448;9.216;2022-08-21T03:18:31;95540.00;;;15.75;100.00
4590;BME280;2307;48.448;9.216;2022-08-21T03:20:59;95542.09;;;15.73;100.00
4590;BME280;2307;48.448;9.216;2022-08-21T03:23:25;95535.72;;;15.69;100.00
4590;BME280;2307;48.448;9.216;2022-08-21T03:25:51;95539.94;;;15.55;100.00
4590;BME280;2307;48.448;9.216;2022-08-21T03:28:19;95539.94;;;15.55;100.00
4590;BME280;2307;48.448;9.216;2022-08-21T03:30:47;95542.28;;;15.47;100.00
4590;BME280;2307;48.448;9.216;2022-08-21T03:33:14;95546.59;;;15.53;100.00
4590;BME280;2307;48.448;9.216;2022-08-21T03:35:40;95544.94;;;15.47;100.00
4590;BME280;2307;48.448;9.216;2022-08-21T03:38:08;95552.88;;;15.36;100.00
4590;BME280;2307;48.448;9.216;2022-08-21T03:40:35;95544.66;;;15.43;100.00
4590;BME280;2307;48.448;9.216;2022-08-21T03:43:01;95552.03;;;15.26;100.00
4590;BME280;2307;48.448;9.216;2022-08-21T03:45:28;95547.53;;;15.26;100.00
4590;BME280;2307;48.448;9.216;2022-08-21T03:47:55;95549.03;;;15.07;100.00
4590;BME280;2307;48.448;9.216;2022-08-21T03:50:22;95548.22;;;15.07;100.00
4590;BME280;2307;48.448;9.216;2022-08-21T03:52:49;95554.91;;;15.14;100.00
4590;BME280;2307;48.448;9.216;2022-08-21T03:55:17;95552.56;;;15.23;100.00
4590;BME280;2307;48.448;9.216;2022-08-21T03:57:43;95552.25;;;15.19;100.00
4590;BME280;2307;48.448;9.216;2022-08-21T04:00:10;95547.19;;;15.13;100.00
4590;BME280;2307;48.448;9.216;2022-08-21T04:02:37;95552.53;;;15.18;100.00
4590;BME280;2307;48.448;9.216;2022-08-21T04:05:04;95548.28;;;15.17;100.00
4590;BME280;2307;48.448;9.216;2022-08-21T04:07:31;95552.53;;;15.18;100.00
4590;BME280;2307;48.448;9.216;2022-08-21T04:09:57;95550.97;;;15.22;100.00
4590;BME280;2307;48.448;9.216;2022-08-21T04:12:25;95549.13;;;15.27;100.00
4590;BME280;2307;48.448;9.216;2022-08-21T04:14:51;95549.41;;;15.31;100.00
4590;BME280;2307;48.448;9.216;2022-08-21T04:17:18;95555.78;;;15.25;100.00
4590;BME280;2307;48.448;9.216;2022-08-21T04:19:44;95568.28;;;15.29;100.00
4590;BME280;2307;48.448;9.216;2022-08-21T04:22:11;95565.28;;;15.11;100.00
4590;BME280;2307;48.448;9.216;2022-08-21T04:24:37;95556.72;;;15.04;100.00
4590;BME280;2307;48.448;9.216;2022-08-21T04:27:04;95563.06;;;14.93;100.00
4590;BME280;2307;48.448;9.216;2022-08-21T04:29:31;95559.75;;;14.75;100.00
4590;BME280;2307;48.448;9.216;2022-08-21T04:31:58;95565.06;;;14.75;100.00
4590;BME280;2307;48.448;9.216;2022-08-21T04:34:24;95576.31;;;14.87;100.00
4590;BME280;2307;48.448;9.216;2022-08-21T04:36:50;95568.94;;;15.00;100.00
4590;BME280;2307;48.448;9.216;2022-08-21T04:39:17;95572.72;;;15.14;100.00
4590;BME280;2307;48.448;9.216;2022-08-21T04:41:43;95575.16;;;15.15;100.00
4590;BME280;2307;48.448;9.216;2022-08-21T04:44:10;95577.53;;;15.17;100.00
4590;BME280;2307;48.448;9.216;2022-08-21T04:46:38;95578.56;;;15.06;100.00
4590;BME280;2307;48.448;9.216;2022-08-21T04:49:04;95579.53;;;14.95;100.00
4590;BME280;2307;48.448;9.216;2022-08-21T04:51:31;95577.97;;;14.99;100.00
4590;BME280;2307;48.448;9.216;2022-08-21T04:53:58;95572.38;;;15.00;100.00
4590;BME280;2307;48.448;9.216;2022-08-21T04:56:28;95583.88;;;15.06;100.00
4590;BME280;2307;48.448;9.216;2022-08-21T04:58:58;95585.91;;;14.94;100.00
4590;BME280;2307;48.448;9.216;2022-08-21T05:01:28;95592.84;;;14.95;100.00
4590;BME280;2307;48.448;9.216;2022-08-21T05:03:57;95588.88;;;14.97;100.00
4590;BME280;2307;48.448;9.216;2022-08-21T05:06:24;95587.56;;;15.00;100.00
4590;BME280;2307;48.448;9.216;2022-08-21T05:08:52;95595.06;;;15.13;100.00
4590;BME280;2307;48.448;9.216;2022-08-21T05:11:19;95592.75;;;15.21;100.00
4590;BME280;2307;48.448;9.216;2022-08-21T05:13:47;95588.75;;;15.19;100.00
4590;BME280;2307;48.448;9.216;2022-08-21T05:16:13;95593.53;;;15.22;100.00
4590;BME280;2307;48.448;9.216;2022-08-21T05:18:40;95594.31;;;15.22;100.00
4590;BME280;2307;48.448;9.216;2022-08-21T05:21:08;95594.88;;;15.24;100.00
4590;BME280;2307;48.448;9.216;2022-08-21T05:23:35;95595.22;;;15.43;100.00
4590;BME280;2307;48.448;9.216;2022-08-21T05:26:02;95595.97;;;15.28;100.00
4590;BME280;2307;48.448;9.216;2022-08-21T05:28:29;95596.47;;;15.25;100.00
4590;BME280;2307;48.448;9.216;2022-08-21T05:30:55;95601.03;;;15.30;100.00
4590;BME280;2307;48.448;9.216;2022-08-21T05:33:22;95601.88;;;15.40;100.00
4590;BME280;2307;48.448;9.216;2022-08-21T05:35:49;95607.97;;;15.36;100.00
4590;BME280;2307;48.448;9.216;2022-08-21T05:38:17;95606.81;;;15.17;100.00
4590;BME280;2307;48.448;9.216;2022-08-21T05:40:43;95602.56;;;15.21;100.00
4590;BME280;2307;48.448;9.216;2022-08-21T05:43:09;95599.13;;;15.25;100.00
4590;BME280;2307;48.448;9.216;2022-08-21T05:45:36;95601.53;;;15.22;100.00
4590;BME280;2307;48.448;9.216;2022-08-21T05:48:05;95605.78;;;15.23;100.00
4590;BME280;2307;48.448;9.216;2022-08-21T05:50:32;95606.34;;;15.25;100.00
4590;BME280;2307;48.448;9.216;2022-08-21T05:52:58;95601.03;;;15.30;100.00
4590;BME280;2307;48.448;9.216;2022-08-21T05:55:26;95608.72;;;15.21;100.00
4590;BME280;2307;48.448;9.216;2022-08-21T05:57:52;95608.94;;;15.15;100.00
4590;BME280;2307;48.448;9.216;2022-08-21T06:00:19;95606.81;;;15.17;100.00
4590;BME280;2307;48.448;9.216;2022-08-21T06:02:48;95596.69;;;15.14;100.00
4590;BME280;2307;48.448;9.216;2022-08-21T06:05:15;95603.06;;;15.13;100.00
4590;BME280;2307;48.448;9.216;2022-08-21T06:07:41;95598.13;;;15.31;100.00
4590;BME280;2307;48.448;9.216;2022-08-21T06:10:07;95598.44;;;15.45;100.00
4590;BME280;2307;48.448;9.216;2022-08-21T06:12:35;95596.31;;;15.47;100.00
4590;BME280;2307;48.448;9.216;2022-08-21T06:15:02;95610.16;;;15.44;100.00
4590;BME280;2307;48.448;9.216;2022-08-21T06:17:28;95602.44;;;15.48;100.00
4590;BME280;2307;48.448;9.216;2022-08-21T06:19:55;95604.63;;;15.56;100.00
4590;BME280;2307;48.448;9.216;2022-08-21T06:22:21;95606.00;;;15.73;100.00
4590;BME280;2307;48.448;9.216;2022-08-21T06:24:48;95611.91;;;15.80;100.00
4590;BME280;2307;48.448;9.216;2022-08-21T06:27:14;95605.22;;;15.73;100.00
4590;BME280;2307;48.448;9.216;2022-08-21T06:29:43;95608.16;;;15.71;100.00
4590;BME280;2307;48.448;9.216;2022-08-21T06:32:11;95607.63;;;15.69;100.00
4590;BME280;2307;48.448;9.216;2022-08-21T06:34:37;95609.69;;;15.57;100.00
4590;BME280;2307;48.448;9.216;2022-08-21T06:37:04;95607.59;;;15.59;100.00
4590;BME280;2307;48.448;9.216;2022-08-21T06:39:31;95603.91;;;15.75;100.00
4590;BME280;2307;48.448;9.216;2022-08-21T06:41:57;95599.69;;;15.89;100.00
4590;BME280;2307;48.448;9.216;2022-08-21T06:44:24;95598.34;;;15.87;100.00
4590;BME280;2307;48.448;9.216;2022-08-21T06:46:52;95600.19;;;15.81;100.00
4590;BME280;2307;48.448;9.216;2022-08-21T06:49:18;95599.97;;;15.98;100.00
4590;BME280;2307;48.448;9.216;2022-08-21T06:51:45;95603.97;;;16.06;100.00
4590;BME280;2307;48.448;9.216;2022-08-21T06:54:11;95601.59;;;16.04;100.00
4590;BME280;2307;48.448;9.216;2022-08-21T06:56:38;95603.69;;;16.02;100.00
4590;BME280;2307;48.448;9.216;2022-08-21T06:59:04;95601.31;;;16.01;100.00
4590;BME280;2307;48.448;9.216;2022-08-21T07:01:31;95599.19;;;16.03;100.00
4590;BME280;2307;48.448;9.216;2022-08-21T07:03:59;95601.84;;;16.03;100.00
4590;BME280;2307;48.448;9.216;2022-08-21T07:06:25;95604.78;;;16.06;100.00
4590;BME280;2307;48.448;9.216;2022-08-21T07:08:52;95602.66;;;16.03;100.00
4590;BME280;2307;48.448;9.216;2022-08-21T07:11:19;95598.66;;;16.06;100.00
4590;BME280;2307;48.448;9.216;2022-08-21T07:13:45;95602.94;;;16.17;100.00
4590;BME280;2307;48.448;9.216;2022-08-21T07:16:12;95600.03;;;16.23;100.00
4590;BME280;2307;48.448;9.216;2022-08-21T07:18:38;95601.91;;;16.38;100.00
4590;BME280;2307;48.448;9.216;2022-08-21T07:21:07;95595.50;;;16.44;100.00
4590;BME280;2307;48.448;9.216;2022-08-21T07:23:34;95601.38;;;16.41;100.00
4590;BME280;2307;48.448;9.216;2022-08-21T07:26:01;95598.16;;;16.49;100.00
4590;BME280;2307;48.448;9.216;2022-08-21T07:28:27;95596.06;;;16.56;100.00
4590;BME280;2307;48.448;9.216;2022-08-21T07:30:55;95606.75;;;16.61;100.00
4590;BME280;2307;48.448;9.216;2022-08-21T07:33:22;95593.91;;;16.68;100.00
4590;BME280;2307;48.448;9.216;2022-08-21T07:35:48;95589.13;;;16.75;100.00
4590;BME280;2307;48.448;9.216;2022-08-21T07:38:16;95588.03;;;16.81;100.00
4590;BME280;2307;48.448;9.216;2022-08-21T07:40:43;95591.50;;;16.97;100.00
4590;BME280;2307;48.448;9.216;2022-08-21T07:43:09;95587.75;;;17.08;100.00
4590;BME280;2307;48.448;9.216;2022-08-21T07:45:36;95588.00;;;17.07;100.00
4590;BME280;2307;48.448;9.216;2022-08-21T07:48:03;95589.03;;;17.21;100.00
4590;BME280;2307;48.448;9.216;2022-08-21T07:50:29;95593.00;;;17.33;100.00
4590;BME280;2307;48.448;9.216;2022-08-21T07:52:55;95592.19;;;17.43;100.00
4590;BME280;2307;48.448;9.216;2022-08-21T07:55:23;95591.91;;;17.49;100.00
4590;BME280;2307;48.448;9.216;2022-08-21T07:57:50;95593.50;;;17.56;100.00
4590;BME280;2307;48.448;9.216;2022-08-21T08:00:17;95600.13;;;17.63;100.00
4590;BME280;2307;48.448;9.216;2022-08-21T08:02:45;95597.41;;;17.78;100.00
4590;BME280;2307;48.448;9.216;2022-08-21T08:05:14;95594.19;;;17.81;100.00
4590;BME280;2307;48.448;9.216;2022-08-21T08:07:41;95596.53;;;17.93;100.00
4590;BME280;2307;48.448;9.216;2022-08-21T08:10:08;95597.03;;;17.95;100.00
4590;BME280;2307;48.448;9.216;2022-08-21T08:12:37;95599.91;;;18.09;100.00
4590;BME280;2307;48.448;9.216;2022-08-21T08:15:05;95593.69;;;18.18;100.00
4590;BME280;2307;48.448;9.216;2022-08-21T08:17:32;95597.69;;;18.26;100.00
4590;BME280;2307;48.448;9.216;2022-08-21T08:19:58;95592.84;;;18.28;100.00
4590;BME280;2307;48.448;9.216;2022-08-21T08:22:25;95592.00;;;18.32;100.00
4590;BME280;2307;48.448;9.216;2022-08-21T08:24:52;95587.72;;;18.31;100.00
4590;BME280;2307;48.448;9.216;2022-08-21T08:27:19;95591.22;;;18.32;100.00
4590;BME280;2307;48.448;9.216;2022-08-21T08:29:48;95584.19;;;18.41;100.00
4590;BME280;2307;48.448;9.216;2022-08-21T08:32:14;95579.78;;;18.60;100.00
4590;BME280;2307;48.448;9.216;2022-08-21T08:34:41;95580.28;;;18.67;100.00
4590;BME280;2307;48.448;9.216;2022-08-21T08:37:08;95576.97;;;18.75;100.00
4590;BME280;2307;48.448;9.216;2022-08-21T08:39:35;95567.56;;;18.83;100.00
4590;BME280;2307;48.448;9.216;2022-08-21T08:42:03;95579.41;;;19.00;100.00
4590;BME280;2307;48.448;9.216;2022-08-21T08:44:31;95574.88;;;19.01;100.00
4590;BME280;2307;48.448;9.216;2022-08-21T08:46:58;95578.81;;;19.08;100.00
4590;BME280;2307;48.448;9.216;2022-08-21T08:49:29;95568.03;;;19.14;100.00
4590;BME280;2307;48.448;9.216;2022-08-21T08:51:57;95577.63;;;19.20;100.00
4590;BME280;2307;48.448;9.216;2022-08-21T08:54:26;95573.19;;;19.34;100.00
4590;BME280;2307;48.448;9.216;2022-08-21T08:56:57;95576.44;;;19.31;100.00
4590;BME280;2307;48.448;9.216;2022-08-21T08:59:25;95574.00;;;19.34;100.00
4590;BME280;2307;48.448;9.216;2022-08-21T09:01:52;95570.13;;;19.45;100.00
4590;BME280;2307;48.448;9.216;2022-08-21T09:04:22;95562.19;;;19.59;97.78
4590;BME280;2307;48.448;9.216;2022-08-21T09:06:53;95560.03;;;19.61;96.38
4590;BME280;2307;48.448;9.216;2022-08-21T09:09:25;95568.78;;;19.67;97.74
4590;BME280;2307;48.448;9.216;2022-08-21T09:11:57;95565.75;;;19.73;92.26
4590;BME280;2307;48.448;9.216;2022-08-21T09:14:27;95564.75;;;19.69;92.71
4590;BME280;2307;48.448;9.216;2022-08-21T09:16:59;95558.09;;;19.85;94.13
4590;BME280;2307;48.448;9.216;2022-08-21T09:19:36;95549.47;;;19.88;90.50
4590;BME280;2307;48.448;9.216;2022-08-21T09:22:07;95551.06;;;19.89;95.95
4590;BME280;2307;48.448;9.216;2022-08-21T09:24:37;95548.38;;;19.89;92.25
4590;BME280;2307;48.448;9.216;2022-08-21T09:27:08;95548.84;;;19.96;92.41
4590;BME280;2307;48.448;9.216;2022-08-21T09:29:36;95546.59;;;20.03;87.98
4590;BME280;2307;48.448;9.216;2022-08-21T09:32:03;95535.78;;;20.08;81.60
4590;BME280;2307;48.448;9.216;2022-08-21T09:34:36;95544.97;;;20.21;76.90
4590;BME280;2307;48.448;9.216;2022-08-21T09:37:03;95540.28;;;20.32;78.78
4590;BME280;2307;48.448;9.216;2022-08-21T09:39:30;95544.00;;;20.36;85.33
4590;BME280;2307;48.448;9.216;2022-08-21T09:41:58;95540.16;;;20.42;84.82
4590;BME280;2307;48.448;9.216;2022-08-21T09:44:26;95535.00;;;20.45;81.06
4590;BME280;2307;48.448;9.216;2022-08-21T09:46:53;95539.00;;;20.61;77.53
4590;BME280;2307;48.448;9.216;2022-08-21T09:49:26;95534.94;;;20.64;79.15
4590;BME280;2307;48.448;9.216;2022-08-21T09:51:54;95543.53;;;20.80;74.10
4590;BME280;2307;48.448;9.216;2022-08-21T09:54:23;95547.53;;;20.96;72.63
4590;BME280;2307;48.448;9.216;2022-08-21T09:56:53;95529.94;;;21.03;68.87
4590;BME280;2307;48.448;9.216;2022-08-21T09:59:38;95532.63;;;21.03;73.08
4590;BME280;2307;48.448;9.216;2022-08-21T10:02:23;95527.44;;;21.07;74.41
4590;BME280;2307;48.448;9.216;2022-08-21T10:04:51;95526.97;;;21.18;78.53
4590;BME280;2307;48.448;9.216;2022-08-21T10:07:21;95526.97;;;21.18;78.12
4590;BME280;2307;48.448;9.216;2022-08-21T10:09:57;95519.25;;;21.31;74.78
4590;BME280;2307;48.448;9.216;2022-08-21T10:12:25;95516.25;;;21.46;77.60
4590;BME280;2307;48.448;9.216;2022-08-21T10:14:55;95511.63;;;21.60;68.39
4590;BME280;2307;48.448;9.216;2022-08-21T10:17:26;95515.41;;;21.72;73.34
4590;BME280;2307;48.448;9.216;2022-08-21T10:19:55;95516.97;;;21.87;69.96
4590;BME280;2307;48.448;9.216;2022-08-21T10:22:28;95513.97;;;22.02;72.74
4590;BME280;2307;48.448;9.216;2022-08-21T10:25:02;95515.81;;;22.15;66.77
4590;BME280;2307;48.448;9.216;2022-08-21T10:27:34;95519.50;;;22.19;65.44
4590;BME280;2307;48.448;9.216;2022-08-21T10:30:04;95516.06;;;22.50;57.98
4590;BME280;2307;48.448;9.216;2022-08-21T10:32:48;95509.22;;;22.88;58.02
4590;BME280;2307;48.448;9.216;2022-08-21T10:35:17;95510.88;;;23.06;59.20
4590;BME280;2307;48.448;9.216;2022-08-21T10:37:52;95512.69;;;23.28;57.41
4590;BME280;2307;48.448;9.216;2022-08-21T10:40:24;95507.91;;;23.56;57.59
4590;BME280;2307;48.448;9.216;2022-08-21T10:42:56;95506.22;;;23.77;54.45
4590;BME280;2307;48.448;9.216;2022-08-21T10:45:38;95506.72;;;23.96;53.66
4590;BME280;2307;48.448;9.216;2022-08-21T10:48:09;95511.97;;;24.27;51.49
4590;BME280;2307;48.448;9.216;2022-08-21T10:50:41;95505.94;;;24.21;47.76
4590;BME280;2307;48.448;9.216;2022-08-21T10:53:15;95497.81;;;24.56;50.94
4590;BME280;2307;48.448;9.216;2022-08-21T10:55:43;95493.19;;;24.82;48.29
4590;BME280;2307;48.448;9.216;2022-08-21T10:58:11;95487.84;;;25.11;49.77
4590;BME280;2307;48.448;9.216;2022-08-21T11:00:39;95491.97;;;25.17;49.21
4590;BME280;2307;48.448;9.216;2022-08-21T11:03:08;95488.41;;;25.25;48.98
4590;BME280;2307;48.448;9.216;2022-08-21T11:05:38;95489.16;;;25.34;49.87
4590;BME280;2307;48.448;9.216;2022-08-21T11:08:06;95489.91;;;25.44;49.32
4590;BME280;2307;48.448;9.216;2022-08-21T11:10:38;95492.63;;;25.52;48.23
4590;BME280;2307;48.448;9.216;2022-08-21T11:13:08;95483.53;;;25.48;49.44
4590;BME280;2307;48.448;9.216;2022-08-21T11:15:39;95483.13;;;25.67;45.19
4590;BME280;2307;48.448;9.216;2022-08-21T11:18:14;95469.81;;;25.82;43.49
4590;BME280;2307;48.448;9.216;2022-08-21T11:20:43;95479.28;;;25.97;44.97
4590;BME280;2307;48.448;9.216;2022-08-21T11:23:13;95480.91;;;26.10;45.34
4590;BME280;2307;48.448;9.216;2022-08-21T11:25:44;95476.91;;;26.16;47.14
4590;BME280;2307;48.448;9.216;2022-08-21T11:28:15;95473.78;;;26.26;44.97
4590;BME280;2307;48.448;9.216;2022-08-21T11:30:46;95470.94;;;26.23;44.82
4590;BME280;2307;48.448;9.216;2022-08-21T11:33:18;95469.16;;;26.27;42.63
4590;BME280;2307;48.448;9.216;2022-08-21T11:35:48;95472.72;;;26.39;41.58
4590;BME280;2307;48.448;9.216;2022-08-21T11:38:20;95472.06;;;26.42;42.58
4590;BME280;2307;48.448;9.216;2022-08-21T11:40:57;95471.13;;;26.38;43.95
4590;BME280;2307;48.448;9.216;2022-08-21T11:43:31;95461.22;;;26.42;44.50
4590;BME280;2307;48.448;9.216;2022-08-21T11:46:03;95458.13;;;26.65;45.03
4590;BME280;2307;48.448;9.216;2022-08-21T11:48:37;95455.22;;;26.70;44.36
4590;BME280;2307;48.448;9.216;2022-08-21T11:51:11;95450.53;;;26.91;44.21
4590;BME280;2307;48.448;9.216;2022-08-21T11:53:39;95447.16;;;27.06;43.14
4590;BME280;2307;48.448;9.216;2022-08-21T11:56:12;95456.09;;;27.19;41.86
4590;BME280;2307;48.448;9.216;2022-08-21T11:58:42;95455.31;;;27.42;41.99
4590;BME280;2307;48.448;9.216;2022-08-21T12:01:11;95457.47;;;27.61;38.81
4590;BME280;2307;48.448;9.216;2022-08-21T12:03:40;95447.94;;;27.79;40.27
4590;BME280;2307;48.448;9.216;2022-08-21T12:06:08;95449.41;;;27.77;41.02
4590;BME280;2307;48.448;9.216;2022-08-21T12:08:36;95446.06;;;27.68;41.43
4590;BME280;2307;48.448;9.216;2022-08-21T12:11:05;95439.97;;;27.59;41.73
4590;BME280;2307;48.448;9.216;2022-08-21T12:13:33;95453.28;;;27.39;40.20
4590;BME280;2307;48.448;9.216;2022-08-21T12:16:10;95444.34;;;27.63;39.71
4590;BME280;2307;48.448;9.216;2022-08-21T12:18:37;95440.56;;;27.92;37.72
4590;BME280;2307;48.448;9.216;2022-08-21T12:21:05;95442.41;;;27.76;38.55
4590;BME280;2307;48.448;9.216;2022-08-21T12:23:44;95437.31;;;27.74;41.65
4590;BME280;2307;48.448;9.216;2022-08-21T12:26:17;95429.50;;;27.73;41.03
4590;BME280;2307;48.448;9.216;2022-08-21T12:28:46;95437.03;;;27.91;41.09
4590;BME280;2307;48.448;9.216;2022-08-21T12:31:20;95429.44;;;27.97;40.14
4590;BME280;2307;48.448;9.216;2022-08-21T12:33:50;95429.28;;;27.78;40.67
4590;BME280;2307;48.448;9.216;2022-08-21T12:36:18;95418.47;;;27.54;38.24
4590;BME280;2307;48.448;9.216;2022-08-21T12:38:48;95419.84;;;27.48;39.73
4590;BME280;2307;48.448;9.216;2022-08-21T12:41:17;95424.34;;;27.43;39.78
4590;BME280;2307;48.448;9.216;2022-08-21T12:43:47;95422.91;;;27.46;38.54
4590;BME280;2307;48.448;9.216;2022-08-21T12:46:15;95417.34;;;27.42;39.31
4590;BME280;2307;48.448;9.216;2022-08-21T12:48:43;95412.06;;;27.46;39.76
4590;BME280;2307;48.448;9.216;2022-08-21T12:51:13;95413.59;;;27.71;39.97
4590;BME280;2307;48.448;9.216;2022-08-21T12:53:44;95419.03;;;27.99;39.16
4590;BME280;2307;48.448;9.216;2022-08-21T12:56:13;95425.56;;;28.22;38.91
4590;BME280;2307;48.448;9.216;2022-08-21T12:58:40;95413.19;;;28.53;37.19
4590;BME280;2307;48.448;9.216;2022-08-21T13:01:11;95414.13;;;28.44;35.32
4590;BME280;2307;48.448;9.216;2022-08-21T13:03:40;95408.88;;;28.52;36.03
4590;BME280;2307;48.448;9.216;2022-08-21T13:06:07;95414.13;;;28.44;38.00
4590;BME280;2307;48.448;9.216;2022-08-21T13:08:38;95407.72;;;28.37;38.43
4590;BME280;2307;48.448;9.216;2022-08-21T13:11:05;95409.06;;;28.59;35.32
4590;BME280;2307;48.448;9.216;2022-08-21T13:13:33;95405.44;;;28.82;35.34
4590;BME280;2307;48.448;9.216;2022-08-21T13:16:00;95411.91;;;28.78;38.11
4590;BME280;2307;48.448;9.216;2022-08-21T13:18:30;95407.19;;;28.90;38.46
4590;BME280;2307;48.448;9.216;2022-08-21T13:21:07;95407.19;;;29.06;38.00